createdAt,value
2018-07-25T00:00:03.885Z,23.2
2018-07-25T00:01:12.528Z,23.16
2018-07-25T00:02:21.451Z,23.14
2018-07-25T00:03:30.099Z,23.1
2018-07-25T00:04:38.776Z,23.04
2018-07-25T00:05:47.399Z,22.96
2018-07-25T00:06:56.055Z,22.95
2018-07-25T00:08:04.701Z,22.95
2018-07-25T00:09:13.359Z,22.96
2018-07-25T00:10:22.005Z,22.89
2018-07-25T00:11:30.923Z,22.91
2018-07-25T00:12:39.571Z,22.89
2018-07-25T00:13:48.227Z,22.83
2018-07-25T00:14:56.873Z,22.78
2018-07-25T00:16:05.792Z,22.74
2018-07-25T00:17:14.439Z,22.74
2018-07-25T00:18:23.088Z,22.78
2018-07-25T00:19:31.743Z,22.76
2018-07-25T00:20:40.658Z,22.73
2018-07-25T00:21:49.571Z,22.7
2018-07-25T00:22:58.216Z,22.62
2018-07-25T00:24:06.876Z,22.7
2018-07-25T00:25:15.527Z,22.53
2018-07-25T00:26:24.179Z,22.68
2018-07-25T00:27:32.826Z,22.55
2018-07-25T00:28:41.478Z,22.58
2018-07-25T00:29:50.125Z,22.49
2018-07-25T00:30:58.783Z,22.53
2018-07-25T00:32:07.429Z,22.52
2018-07-25T00:33:16.083Z,22.46
2018-07-25T00:34:24.732Z,22.47
2018-07-25T00:35:33.385Z,22.4
2018-07-25T00:36:42.040Z,22.33
2018-07-25T00:37:50.954Z,22.34
2018-07-25T00:38:59.605Z,22.34
2018-07-25T00:40:08.520Z,22.33
2018-07-25T00:41:17.175Z,22.28
2018-07-25T00:42:25.823Z,22.3
2018-07-25T00:43:34.474Z,22.26
2018-07-25T00:44:43.385Z,22.19
2018-07-25T00:45:52.043Z,22.19
2018-07-25T00:47:00.949Z,22.19
2018-07-25T00:48:09.601Z,22.21
2018-07-25T00:49:18.248Z,22.14
2018-07-25T00:50:26.903Z,22.16
2018-07-25T00:51:35.553Z,22.18
2018-07-25T00:52:44.202Z,22.14
2018-07-25T00:53:52.850Z,22.15
2018-07-25T00:55:01.498Z,22.08
2018-07-25T00:56:10.157Z,21.99
2018-07-25T00:57:18.805Z,21.96
2018-07-25T00:58:27.715Z,22.03
2018-07-25T00:59:36.627Z,21.96
2018-07-25T01:00:45.281Z,22.01
2018-07-25T01:01:54.198Z,21.94
2018-07-25T01:03:02.847Z,21.85
2018-07-25T01:04:11.754Z,21.83
2018-07-25T01:05:20.677Z,21.83
2018-07-25T01:06:29.324Z,21.88
2018-07-25T01:07:37.974Z,21.83
2018-07-25T01:08:46.634Z,21.84
2018-07-25T01:09:55.284Z,21.83
2018-07-25T01:11:04.193Z,21.84
2018-07-25T01:12:12.840Z,21.85
2018-07-25T01:13:21.486Z,21.72
2018-07-25T01:14:30.148Z,21.77
2018-07-25T01:15:39.054Z,21.75
2018-07-25T01:16:47.711Z,21.72
2018-07-25T01:17:56.615Z,21.65
2018-07-25T01:19:05.273Z,21.69
2018-07-25T01:20:13.918Z,21.65
2018-07-25T01:21:22.571Z,21.66
2018-07-25T01:22:31.212Z,21.69
2018-07-25T01:23:40.137Z,21.65
2018-07-25T01:24:48.785Z,21.66
2018-07-25T01:25:57.436Z,21.58
2018-07-25T01:27:06.345Z,21.56
2018-07-25T01:28:15.007Z,21.69
2018-07-25T01:29:23.663Z,21.63
2018-07-25T01:30:32.316Z,21.54
2018-07-25T01:31:40.971Z,21.63
2018-07-25T01:32:49.879Z,21.63
2018-07-25T01:33:58.535Z,21.69
2018-07-25T01:35:07.183Z,21.59
2018-07-25T01:36:16.102Z,21.58
2018-07-25T01:37:25.011Z,21.56
2018-07-25T01:38:33.666Z,21.65
2018-07-25T01:39:42.312Z,21.6
2018-07-25T01:40:50.968Z,21.53
2018-07-25T01:41:59.879Z,21.59
2018-07-25T01:43:08.801Z,21.6
2018-07-25T01:44:17.449Z,21.54
2018-07-25T01:45:26.107Z,21.53
2018-07-25T01:46:34.755Z,21.58
2018-07-25T01:47:43.397Z,21.5
2018-07-25T01:48:52.045Z,21.54
2018-07-25T01:50:00.692Z,21.6
2018-07-25T01:51:09.349Z,21.5
2018-07-25T01:52:18.005Z,21.59
2018-07-25T01:53:26.927Z,21.53
2018-07-25T01:54:35.836Z,21.41
2018-07-25T01:55:44.500Z,21.44
2018-07-25T01:56:53.141Z,21.44
2018-07-25T01:58:01.795Z,21.43
2018-07-25T01:59:10.435Z,21.44
2018-07-25T02:00:19.093Z,21.4
2018-07-25T02:01:27.775Z,21.37
2018-07-25T02:02:36.396Z,21.35
2018-07-25T02:03:45.036Z,21.37
2018-07-25T02:04:53.688Z,21.35
2018-07-25T02:06:02.346Z,21.35
2018-07-25T02:07:10.993Z,21.4
2018-07-25T02:08:19.966Z,21.33
2018-07-25T02:09:28.551Z,21.41
2018-07-25T02:10:37.201Z,21.44
2018-07-25T02:11:45.848Z,21.33
2018-07-25T02:12:54.775Z,21.45
2018-07-25T02:14:03.420Z,21.43
2018-07-25T02:15:12.069Z,21.43
2018-07-25T02:16:20.721Z,21.33
2018-07-25T02:17:29.642Z,21.35
2018-07-25T02:18:38.289Z,21.26
2018-07-25T02:19:46.944Z,21.33
2018-07-25T02:20:55.592Z,21.23
2018-07-25T02:22:04.248Z,21.23
2018-07-25T02:23:13.169Z,21.25
2018-07-25T02:24:21.817Z,21.26
2018-07-25T02:25:30.463Z,21.23
2018-07-25T02:26:39.109Z,21.26
2018-07-25T02:27:48.024Z,21.23
2018-07-25T02:28:56.670Z,21.22
2018-07-25T02:30:05.320Z,21.22
2018-07-25T02:31:14.235Z,21.2
2018-07-25T02:32:22.905Z,21.14
2018-07-25T02:33:31.539Z,21.15
2018-07-25T02:34:40.198Z,21.08
2018-07-25T02:35:48.848Z,21.11
2018-07-25T02:36:57.762Z,21.05
2018-07-25T02:38:06.414Z,21.11
2018-07-25T02:39:15.072Z,21.08
2018-07-25T02:40:23.721Z,21.11
2018-07-25T02:41:32.367Z,21.08
2018-07-25T02:42:41.016Z,21.07
2018-07-25T02:43:49.687Z,21.04
2018-07-25T02:44:59.067Z,20.96
2018-07-25T02:46:07.712Z,21.04
2018-07-25T02:47:16.625Z,21.01
2018-07-25T02:48:25.283Z,20.95
2018-07-25T02:49:33.942Z,20.88
2018-07-25T02:50:42.587Z,20.9
2018-07-25T02:51:51.503Z,20.86
2018-07-25T02:53:00.155Z,20.9
2018-07-25T02:54:09.095Z,20.89
2018-07-25T02:55:18.332Z,20.82
2018-07-25T02:56:26.990Z,20.89
2018-07-25T02:57:35.639Z,20.83
2018-07-25T02:58:44.294Z,20.8
2018-07-25T02:59:53.208Z,20.88
2018-07-25T03:01:01.855Z,20.74
2018-07-25T03:02:10.503Z,20.71
2018-07-25T03:03:19.684Z,20.7
2018-07-25T03:04:28.668Z,20.71
2018-07-25T03:05:37.582Z,20.66
2018-07-25T03:06:46.234Z,20.6
2018-07-25T03:07:55.160Z,20.66
2018-07-25T03:09:04.190Z,20.66
2018-07-25T03:10:13.193Z,20.52
2018-07-25T03:11:22.427Z,20.58
2018-07-25T03:12:31.347Z,20.6
2018-07-25T03:13:39.999Z,20.6
2018-07-25T03:14:48.657Z,20.56
2018-07-25T03:15:57.304Z,20.63
2018-07-25T03:17:05.971Z,20.53
2018-07-25T03:18:14.627Z,20.58
2018-07-25T03:19:23.798Z,20.56
2018-07-25T03:20:32.724Z,20.52
2018-07-25T03:21:41.372Z,20.52
2018-07-25T03:22:50.027Z,20.52
2018-07-25T03:23:58.674Z,20.48
2018-07-25T03:25:07.327Z,20.52
2018-07-25T03:26:16.504Z,20.44
2018-07-25T03:27:25.161Z,20.42
2018-07-25T03:28:33.811Z,20.39
2018-07-25T03:29:42.723Z,20.46
2018-07-25T03:30:51.369Z,20.42
2018-07-25T03:32:00.040Z,20.42
2018-07-25T03:33:08.953Z,20.4
2018-07-25T03:34:17.605Z,20.42
2018-07-25T03:35:26.251Z,20.48
2018-07-25T03:36:34.899Z,20.36
2018-07-25T03:37:43.551Z,20.32
2018-07-25T03:38:52.466Z,20.37
2018-07-25T03:40:01.383Z,20.39
2018-07-25T03:41:10.025Z,20.34
2018-07-25T03:42:18.667Z,20.37
2018-07-25T03:43:27.314Z,20.39
2018-07-25T03:44:35.965Z,20.29
2018-07-25T03:45:44.614Z,20.32
2018-07-25T03:46:53.266Z,20.22
2018-07-25T03:48:01.913Z,20.3
2018-07-25T03:49:10.567Z,20.24
2018-07-25T03:50:19.218Z,20.33
2018-07-25T03:51:27.871Z,20.24
2018-07-25T03:52:36.518Z,20.3
2018-07-25T03:53:45.170Z,20.22
2018-07-25T03:54:53.815Z,20.19
2018-07-25T03:56:02.464Z,20.18
2018-07-25T03:57:11.116Z,20.17
2018-07-25T03:58:20.028Z,20.22
2018-07-25T03:59:28.688Z,20.29
2018-07-25T04:00:37.332Z,20.29
2018-07-25T04:01:45.979Z,20.22
2018-07-25T04:02:54.626Z,20.24
2018-07-25T04:04:03.279Z,20.19
2018-07-25T04:05:11.923Z,20.27
2018-07-25T04:06:20.576Z,20.27
2018-07-25T04:07:29.217Z,20.24
2018-07-25T04:08:37.878Z,20.21
2018-07-25T04:09:46.525Z,20.21
2018-07-25T04:10:55.176Z,20.3
2018-07-25T04:12:03.816Z,20.29
2018-07-25T04:13:12.732Z,20.29
2018-07-25T04:14:21.650Z,20.21
2018-07-25T04:15:30.303Z,20.18
2018-07-25T04:16:38.959Z,20.19
2018-07-25T04:17:47.598Z,20.18
2018-07-25T04:18:56.251Z,20.12
2018-07-25T04:20:04.896Z,20.17
2018-07-25T04:21:13.552Z,20.19
2018-07-25T04:22:22.192Z,20.15
2018-07-25T04:23:30.848Z,20.17
2018-07-25T04:24:40.077Z,20.21
2018-07-25T04:25:48.938Z,20.15
2018-07-25T04:26:57.584Z,20.17
2018-07-25T04:28:06.227Z,20.15
2018-07-25T04:29:15.134Z,20.14
2018-07-25T04:30:23.790Z,20.21
2018-07-25T04:31:32.433Z,20.14
2018-07-25T04:32:41.079Z,20.18
2018-07-25T04:33:49.726Z,20.19
2018-07-25T04:34:58.372Z,20.15
2018-07-25T04:36:07.027Z,20.17
2018-07-25T04:37:15.937Z,20.17
2018-07-25T04:38:24.589Z,20.15
2018-07-25T04:39:33.228Z,20.19
2018-07-25T04:40:41.889Z,20.24
2018-07-25T04:41:50.792Z,20.22
2018-07-25T04:42:59.449Z,20.24
2018-07-25T04:44:08.089Z,20.21
2018-07-25T04:45:16.751Z,20.24
2018-07-25T04:46:25.972Z,20.24
2018-07-25T04:47:34.507Z,20.24
2018-07-25T04:48:43.145Z,20.22
2018-07-25T04:49:51.795Z,20.29
2018-07-25T04:51:00.450Z,20.21
2018-07-25T04:52:09.364Z,20.33
2018-07-25T04:53:18.018Z,20.24
2018-07-25T04:54:26.658Z,20.26
2018-07-25T04:55:35.311Z,20.37
2018-07-25T04:56:43.955Z,20.37
2018-07-25T04:57:52.610Z,20.36
2018-07-25T04:59:01.250Z,20.34
2018-07-25T05:00:09.903Z,20.37
2018-07-25T05:01:18.555Z,20.4
2018-07-25T05:02:27.217Z,20.5
2018-07-25T05:03:36.123Z,20.44
2018-07-25T05:04:44.776Z,20.5
2018-07-25T05:05:53.423Z,20.48
2018-07-25T05:07:02.345Z,20.53
2018-07-25T05:08:10.992Z,20.53
2018-07-25T05:09:19.639Z,20.59
2018-07-25T05:10:28.283Z,20.52
2018-07-25T05:11:37.190Z,20.64
2018-07-25T05:12:45.843Z,20.63
2018-07-25T05:13:54.493Z,20.6
2018-07-25T05:15:03.404Z,20.56
2018-07-25T05:16:12.047Z,20.73
2018-07-25T05:17:20.706Z,20.77
2018-07-25T05:18:29.353Z,20.8
2018-07-25T05:19:38.002Z,20.83
2018-07-25T05:20:46.649Z,20.89
2018-07-25T05:21:55.300Z,20.93
2018-07-25T05:23:03.946Z,20.89
2018-07-25T05:24:12.904Z,20.92
2018-07-25T05:25:21.551Z,20.92
2018-07-25T05:26:30.461Z,20.98
2018-07-25T05:27:39.110Z,21
2018-07-25T05:28:47.767Z,21.01
2018-07-25T05:29:56.678Z,21.07
2018-07-25T05:31:05.326Z,21.15
2018-07-25T05:32:13.980Z,21.14
2018-07-25T05:33:22.631Z,21.2
2018-07-25T05:34:31.547Z,21.19
2018-07-25T05:35:40.193Z,21.23
2018-07-25T05:36:48.848Z,21.28
2018-07-25T05:37:57.498Z,21.28
2018-07-25T05:39:06.155Z,21.22
2018-07-25T05:40:14.802Z,21.41
2018-07-25T05:41:23.721Z,21.43
2018-07-25T05:42:32.368Z,21.48
2018-07-25T05:43:41.293Z,21.45
2018-07-25T05:44:49.936Z,21.51
2018-07-25T05:45:58.596Z,21.45
2018-07-25T05:47:07.236Z,21.54
2018-07-25T05:48:16.145Z,21.59
2018-07-25T05:49:24.826Z,21.58
2018-07-25T05:50:33.799Z,21.7
2018-07-25T05:51:42.445Z,21.77
2018-07-25T05:52:51.089Z,21.75
2018-07-25T05:53:59.742Z,21.8
2018-07-25T05:55:08.391Z,21.88
2018-07-25T05:56:17.041Z,21.91
2018-07-25T05:57:25.950Z,21.96
2018-07-25T05:58:34.646Z,21.96
2018-07-25T05:59:43.254Z,21.92
2018-07-25T06:00:51.913Z,22
2018-07-25T06:02:00.547Z,22.1
2018-07-25T06:03:09.309Z,22.14
2018-07-25T06:04:18.248Z,22.12
2018-07-25T06:05:26.898Z,22.12
2018-07-25T06:06:35.813Z,22.14
2018-07-25T06:07:44.452Z,22.19
2018-07-25T06:08:53.112Z,22.34
2018-07-25T06:10:02.015Z,22.28
2018-07-25T06:11:10.676Z,22.31
2018-07-25T06:12:19.320Z,22.37
2018-07-25T06:13:28.495Z,22.38
2018-07-25T06:14:37.141Z,22.46
2018-07-25T06:15:45.799Z,22.52
2018-07-25T06:16:54.446Z,22.56
2018-07-25T06:18:03.102Z,22.55
2018-07-25T06:19:11.748Z,22.56
2018-07-25T06:20:20.409Z,22.59
2018-07-25T06:21:29.058Z,22.59
2018-07-25T06:22:37.707Z,22.71
2018-07-25T06:23:46.357Z,22.71
2018-07-25T06:24:55.009Z,22.7
2018-07-25T06:26:03.783Z,22.81
2018-07-25T06:27:12.793Z,22.83
2018-07-25T06:28:21.448Z,22.91
2018-07-25T06:29:30.089Z,22.98
2018-07-25T06:30:38.751Z,22.96
2018-07-25T06:31:47.397Z,23.07
2018-07-25T06:32:56.053Z,22.99
2018-07-25T06:34:04.697Z,23.14
2018-07-25T06:35:13.357Z,23.16
2018-07-25T06:36:22.006Z,23.25
2018-07-25T06:37:30.925Z,23.2
2018-07-25T06:38:39.565Z,23.18
2018-07-25T06:39:48.488Z,23.25
2018-07-25T06:40:57.142Z,23.44
2018-07-25T06:42:05.796Z,23.42
2018-07-25T06:43:14.508Z,23.42
2018-07-25T06:44:23.099Z,23.52
2018-07-25T06:45:31.754Z,23.49
2018-07-25T06:46:40.400Z,23.55
2018-07-25T06:47:49.060Z,23.64
2018-07-25T06:48:57.709Z,23.67
2018-07-25T06:50:06.362Z,23.59
2018-07-25T06:51:15.275Z,23.7
2018-07-25T06:52:24.207Z,23.73
2018-07-25T06:53:32.851Z,23.76
2018-07-25T06:54:41.502Z,23.85
2018-07-25T06:55:50.151Z,23.86
2018-07-25T06:56:59.086Z,23.88
2018-07-25T06:58:07.994Z,23.95
2018-07-25T06:59:16.642Z,24.01
2018-07-25T07:00:25.557Z,23.99
2018-07-25T07:01:34.473Z,24.01
2018-07-25T07:02:43.112Z,24.07
2018-07-25T07:03:52.040Z,24.18
2018-07-25T07:05:00.687Z,24.18
2018-07-25T07:06:09.616Z,24.22
2018-07-25T07:07:18.261Z,24.26
2018-07-25T07:08:26.916Z,24.31
2018-07-25T07:09:35.563Z,24.37
2018-07-25T07:10:44.486Z,24.36
2018-07-25T07:11:53.128Z,24.44
2018-07-25T07:13:01.784Z,24.46
2018-07-25T07:14:10.966Z,24.56
2018-07-25T07:15:19.648Z,24.56
2018-07-25T07:16:28.717Z,24.63
2018-07-25T07:17:37.368Z,24.71
2018-07-25T07:18:46.020Z,24.74
2018-07-25T07:19:54.669Z,24.77
2018-07-25T07:21:03.330Z,24.85
2018-07-25T07:22:11.976Z,24.89
2018-07-25T07:23:20.632Z,24.85
2018-07-25T07:24:29.276Z,24.93
2018-07-25T07:25:37.937Z,24.97
2018-07-25T07:26:46.582Z,25
2018-07-25T07:27:55.238Z,25.06
2018-07-25T07:29:03.879Z,25.12
2018-07-25T07:30:12.809Z,25.11
2018-07-25T07:31:21.477Z,25.12
2018-07-25T07:32:30.116Z,25.21
2018-07-25T07:33:38.759Z,25.21
2018-07-25T07:34:47.414Z,25.22
2018-07-25T07:35:56.072Z,25.22
2018-07-25T07:37:04.726Z,25.31
2018-07-25T07:38:13.378Z,25.34
2018-07-25T07:39:22.023Z,25.37
2018-07-25T07:40:30.677Z,25.34
2018-07-25T07:41:39.332Z,25.46
2018-07-25T07:42:47.989Z,25.55
2018-07-25T07:43:56.634Z,25.55
2018-07-25T07:45:05.289Z,25.59
2018-07-25T07:46:13.937Z,25.7
2018-07-25T07:47:22.598Z,25.71
2018-07-25T07:48:31.242Z,25.8
2018-07-25T07:49:39.897Z,25.76
2018-07-25T07:50:48.549Z,25.76
2018-07-25T07:51:57.212Z,25.89
2018-07-25T07:53:05.866Z,25.95
2018-07-25T07:54:14.513Z,26.01
2018-07-25T07:55:23.164Z,26.04
2018-07-25T07:56:31.812Z,26.22
2018-07-25T07:57:40.472Z,26.23
2018-07-25T07:58:49.123Z,26.26
2018-07-25T07:59:57.780Z,26.31
2018-07-25T08:01:06.428Z,26.3
2018-07-25T08:02:15.358Z,26.41
2018-07-25T08:03:24.030Z,26.45
2018-07-25T08:04:32.668Z,26.39
2018-07-25T08:05:41.321Z,26.56
2018-07-25T08:06:49.977Z,26.6
2018-07-25T08:07:58.626Z,26.61
2018-07-25T08:09:07.276Z,26.71
2018-07-25T08:10:15.922Z,26.78
2018-07-25T08:11:24.577Z,26.78
2018-07-25T08:12:33.228Z,26.73
2018-07-25T08:13:41.884Z,26.82
2018-07-25T08:14:50.544Z,26.78
2018-07-25T08:15:59.191Z,26.88
2018-07-25T08:17:07.846Z,26.82
2018-07-25T08:18:16.515Z,26.81
2018-07-25T08:19:25.160Z,26.89
2018-07-25T08:20:33.818Z,26.98
2018-07-25T08:21:42.469Z,27
2018-07-25T08:22:51.123Z,26.98
2018-07-25T08:23:59.785Z,27.11
2018-07-25T08:25:08.433Z,27.18
2018-07-25T08:26:17.098Z,27.25
2018-07-25T08:27:26.013Z,27.25
2018-07-25T08:28:34.940Z,27.4
2018-07-25T08:29:43.856Z,27.35
2018-07-25T08:30:52.509Z,27.41
2018-07-25T08:32:01.426Z,27.41
2018-07-25T08:33:10.076Z,27.47
2018-07-25T08:34:18.734Z,27.45
2018-07-25T08:35:27.386Z,27.5
2018-07-25T08:36:36.040Z,27.61
2018-07-25T08:37:44.959Z,27.61
2018-07-25T08:38:53.617Z,27.66
2018-07-25T08:40:02.271Z,27.58
2018-07-25T08:41:10.937Z,27.76
2018-07-25T08:42:19.578Z,27.79
2018-07-25T08:43:28.239Z,27.79
2018-07-25T08:44:36.891Z,27.88
2018-07-25T08:45:46.080Z,27.97
2018-07-25T08:46:54.808Z,28.1
2018-07-25T08:48:03.384Z,28.19
2018-07-25T08:49:12.038Z,28.13
2018-07-25T08:50:20.693Z,28.19
2018-07-25T08:51:29.357Z,28.23
2018-07-25T08:52:38.128Z,28.2
2018-07-25T08:53:46.654Z,28.3
2018-07-25T08:54:55.308Z,28.31
2018-07-25T08:56:04.254Z,28.38
2018-07-25T08:57:13.428Z,28.41
2018-07-25T08:58:22.087Z,28.45
2018-07-25T08:59:31.013Z,28.52
2018-07-25T09:00:39.673Z,28.59
2018-07-25T09:01:48.343Z,28.56
2018-07-25T09:02:56.983Z,28.6
2018-07-25T09:04:05.633Z,28.74
2018-07-25T09:05:14.292Z,28.75
2018-07-25T09:06:23.259Z,28.82
2018-07-25T09:07:32.294Z,28.84
2018-07-25T09:08:40.877Z,28.9
2018-07-25T09:09:49.526Z,28.94
2018-07-25T09:10:58.185Z,28.9
2018-07-25T09:12:06.839Z,28.92
2018-07-25T09:13:15.491Z,29.05
2018-07-25T09:14:24.140Z,29.15
2018-07-25T09:15:32.799Z,29.09
2018-07-25T09:16:41.504Z,29.2
2018-07-25T09:17:50.106Z,29.28
2018-07-25T09:18:58.759Z,29.22
2018-07-25T09:20:07.413Z,29.21
2018-07-25T09:21:16.064Z,29.22
2018-07-25T09:22:24.992Z,29.22
2018-07-25T09:23:33.643Z,29.27
2018-07-25T09:24:42.300Z,29.4
2018-07-25T09:25:50.955Z,29.39
2018-07-25T09:26:59.612Z,29.42
2018-07-25T09:28:08.271Z,29.5
2018-07-25T09:29:16.920Z,29.53
2018-07-25T09:30:25.575Z,29.61
2018-07-25T09:31:34.233Z,29.52
2018-07-25T09:32:42.883Z,29.64
2018-07-25T09:33:51.981Z,29.65
2018-07-25T09:35:00.627Z,29.71
2018-07-25T09:36:09.562Z,29.79
2018-07-25T09:37:18.492Z,29.71
2018-07-25T09:38:27.142Z,29.81
2018-07-25T09:39:35.803Z,29.89
2018-07-25T09:40:44.455Z,29.89
2018-07-25T09:41:53.115Z,29.92
2018-07-25T09:43:01.769Z,29.95
2018-07-25T09:44:10.426Z,29.96
2018-07-25T09:45:19.078Z,29.9
2018-07-25T09:46:27.755Z,30.03
2018-07-25T09:47:36.397Z,30.06
2018-07-25T09:48:45.053Z,30.01
2018-07-25T09:49:54.003Z,30.16
2018-07-25T09:51:02.657Z,30.06
2018-07-25T09:52:11.315Z,30.21
2018-07-25T09:53:19.973Z,30.21
2018-07-25T09:54:28.633Z,30.26
2018-07-25T09:55:37.283Z,30.26
2018-07-25T09:56:45.947Z,30.32
2018-07-25T09:57:54.606Z,30.24
2018-07-25T09:59:03.344Z,30.31
2018-07-25T10:00:11.909Z,30.43
2018-07-25T10:01:20.584Z,30.46
2018-07-25T10:02:29.264Z,30.59
2018-07-25T10:03:37.943Z,30.55
2018-07-25T10:04:46.620Z,30.63
2018-07-25T10:05:55.296Z,30.62
2018-07-25T10:07:04.297Z,30.74
2018-07-25T10:08:12.944Z,30.77
2018-07-25T10:09:21.605Z,30.8
2018-07-25T10:10:30.285Z,30.88
2018-07-25T10:11:38.982Z,30.77
2018-07-25T10:12:47.646Z,30.88
2018-07-25T10:13:56.327Z,30.85
2018-07-25T10:15:05.024Z,30.92
2018-07-25T10:16:13.687Z,30.92
2018-07-25T10:17:22.638Z,30.91
2018-07-25T10:18:31.315Z,30.96
2018-07-25T10:19:39.993Z,30.96
2018-07-25T10:20:48.761Z,30.99
2018-07-25T10:21:57.374Z,31.17
2018-07-25T10:23:06.323Z,31.18
2018-07-25T10:24:15.286Z,31.25
2018-07-25T10:25:23.964Z,31.44
2018-07-25T10:26:32.659Z,31.35
2018-07-25T10:27:41.324Z,31.48
2018-07-25T10:28:50.616Z,31.47
2018-07-25T10:29:59.556Z,31.6
2018-07-25T10:31:08.241Z,31.51
2018-07-25T10:32:16.927Z,31.67
2018-07-25T10:33:25.598Z,31.73
2018-07-25T10:34:34.277Z,31.7
2018-07-25T10:35:43.506Z,31.73
2018-07-25T10:36:52.186Z,31.92
2018-07-25T10:38:00.866Z,31.95
2018-07-25T10:39:09.941Z,32.08
2018-07-25T10:40:18.513Z,32.08
2018-07-25T10:41:27.194Z,32.05
2018-07-25T10:42:35.937Z,32.09
2018-07-25T10:43:44.553Z,32.16
2018-07-25T10:44:53.230Z,32.15
2018-07-25T10:46:02.504Z,32.17
2018-07-25T10:47:11.466Z,32.27
2018-07-25T10:48:20.425Z,32.31
2018-07-25T10:49:29.387Z,32.35
2018-07-25T10:50:38.343Z,32.41
2018-07-25T10:51:47.024Z,32.46
2018-07-25T10:52:55.703Z,32.48
2018-07-25T10:54:04.380Z,32.46
2018-07-25T10:55:13.061Z,32.54
2018-07-25T10:56:21.739Z,32.53
2018-07-25T10:57:30.426Z,32.67
2018-07-25T10:58:39.105Z,32.68
2018-07-25T10:59:47.787Z,32.71
2018-07-25T11:00:56.465Z,32.66
2018-07-25T11:02:05.149Z,32.66
2018-07-25T11:03:13.826Z,32.72
2018-07-25T11:04:22.514Z,32.73
2018-07-25T11:05:31.472Z,32.73
2018-07-25T11:06:40.448Z,32.88
2018-07-25T11:07:49.128Z,32.85
2018-07-25T11:08:58.095Z,32.98
2018-07-25T11:10:06.769Z,32.97
2018-07-25T11:11:15.449Z,33.01
2018-07-25T11:12:24.130Z,33.05
2018-07-25T11:13:32.812Z,33.13
2018-07-25T11:14:41.493Z,33.16
2018-07-25T11:15:50.175Z,33.29
2018-07-25T11:16:59.129Z,33.22
2018-07-25T11:18:07.811Z,33.22
2018-07-25T11:19:16.492Z,33.19
2018-07-25T11:20:25.173Z,33.23
2018-07-25T11:21:33.853Z,33.31
2018-07-25T11:22:42.593Z,33.26
2018-07-25T11:23:51.489Z,33.32
2018-07-25T11:25:00.735Z,33.44
2018-07-25T11:26:09.421Z,33.5
2018-07-25T11:27:18.095Z,33.6
2018-07-25T11:28:26.778Z,33.55
2018-07-25T11:29:35.727Z,33.51
2018-07-25T11:30:44.411Z,33.51
2018-07-25T11:31:53.356Z,33.58
2018-07-25T11:33:02.306Z,33.63
2018-07-25T11:34:11.064Z,33.6
2018-07-25T11:35:19.676Z,33.7
2018-07-25T11:36:28.353Z,33.61
2018-07-25T11:37:37.297Z,33.67
2018-07-25T11:38:45.976Z,33.65
2018-07-25T11:39:54.658Z,33.57
2018-07-25T11:41:03.339Z,33.55
2018-07-25T11:42:12.020Z,33.55
2018-07-25T11:43:20.971Z,33.55
2018-07-25T11:44:29.653Z,33.63
2018-07-25T11:45:38.599Z,33.58
2018-07-25T11:46:47.280Z,33.63
2018-07-25T11:47:55.961Z,33.65
2018-07-25T11:49:04.912Z,33.84
2018-07-25T11:50:13.637Z,33.85
2018-07-25T11:51:22.277Z,34
2018-07-25T11:52:30.956Z,33.94
2018-07-25T11:53:39.640Z,34
2018-07-25T11:54:48.589Z,34
2018-07-25T11:55:57.269Z,34
2018-07-25T11:57:05.950Z,34.03
2018-07-25T11:58:14.630Z,34.02
2018-07-25T11:59:23.313Z,34.11
2018-07-25T12:00:31.991Z,34.28
2018-07-25T12:01:41.063Z,34.31
2018-07-25T12:02:49.686Z,34.4
2018-07-25T12:03:58.368Z,34.47
2018-07-25T12:05:07.048Z,34.46
2018-07-25T12:06:15.996Z,34.58
2018-07-25T12:07:24.703Z,34.66
2018-07-25T12:08:33.360Z,34.76
2018-07-25T12:09:42.045Z,34.79
2018-07-25T12:10:51.323Z,34.83
2018-07-25T12:12:00.005Z,35.04
2018-07-25T12:13:08.693Z,35.01
2018-07-25T12:14:17.376Z,34.96
2018-07-25T12:15:26.060Z,35
2018-07-25T12:16:34.740Z,34.96
2018-07-25T12:17:43.422Z,35.01
2018-07-25T12:18:52.119Z,35.12
2018-07-25T12:20:00.785Z,35.19
2018-07-25T12:21:10.123Z,35.31
2018-07-25T12:22:18.841Z,35.3
2018-07-25T12:23:27.486Z,35.39
2018-07-25T12:24:36.456Z,35.44
2018-07-25T12:25:45.137Z,35.42
2018-07-25T12:26:53.855Z,35.53
2018-07-25T12:28:02.503Z,35.59
2018-07-25T12:29:11.196Z,35.69
2018-07-25T12:30:19.870Z,35.93
2018-07-25T12:31:28.552Z,35.84
2018-07-25T12:32:37.235Z,35.94
2018-07-25T12:33:45.918Z,35.76
2018-07-25T12:34:54.601Z,35.69
2018-07-25T12:36:03.286Z,35.71
2018-07-25T12:37:11.973Z,35.68
2018-07-25T12:38:20.650Z,35.69
2018-07-25T12:39:29.333Z,35.72
2018-07-25T12:40:38.016Z,35.71
2018-07-25T12:41:46.743Z,35.72
2018-07-25T12:42:55.545Z,35.71
2018-07-25T12:44:04.062Z,35.74
2018-07-25T12:45:12.744Z,35.74
2018-07-25T12:46:21.439Z,35.75
2018-07-25T12:47:30.411Z,35.61
2018-07-25T12:48:39.095Z,35.49
2018-07-25T12:49:47.775Z,35.38
2018-07-25T12:50:56.458Z,35.39
2018-07-25T12:52:05.142Z,35.45
2018-07-25T12:53:13.852Z,35.41
2018-07-25T12:54:22.965Z,35.42
2018-07-25T12:55:31.649Z,35.45
2018-07-25T12:56:40.334Z,35.45
2018-07-25T12:57:49.308Z,35.54
2018-07-25T12:58:57.979Z,35.57
2018-07-25T13:00:06.661Z,35.42
2018-07-25T13:01:15.345Z,35.42
2018-07-25T13:02:24.029Z,35.26
2018-07-25T13:03:32.713Z,35.2
2018-07-25T13:04:41.395Z,35.03
2018-07-25T13:05:50.077Z,34.97
2018-07-25T13:06:59.338Z,34.79
2018-07-25T13:08:08.306Z,34.69
2018-07-25T13:09:17.536Z,34.53
2018-07-25T13:10:26.140Z,34.55
2018-07-25T13:11:34.820Z,34.31
2018-07-25T13:12:43.502Z,34.26
2018-07-25T13:13:52.185Z,34.18
2018-07-25T13:15:00.869Z,34.13
2018-07-25T13:16:09.549Z,34.11
2018-07-25T13:17:18.516Z,34.16
2018-07-25T13:18:27.197Z,34.13
2018-07-25T13:19:35.878Z,34.09
2018-07-25T13:20:44.565Z,34.19
2018-07-25T13:21:53.247Z,34.31
2018-07-25T13:23:01.982Z,34.31
2018-07-25T13:24:11.384Z,34.35
2018-07-25T13:25:20.060Z,34.41
2018-07-25T13:26:28.743Z,34.43
2018-07-25T13:27:38.007Z,34.51
2018-07-25T13:28:46.693Z,34.66
2018-07-25T13:29:55.373Z,34.65
2018-07-25T13:31:04.054Z,34.78
2018-07-25T13:32:12.738Z,34.86
2018-07-25T13:33:21.424Z,34.89
2018-07-25T13:34:30.105Z,35
2018-07-25T13:35:38.786Z,34.91
2018-07-25T13:36:48.156Z,34.94
2018-07-25T13:37:56.839Z,35.04
2018-07-25T13:39:05.520Z,35.12
2018-07-25T13:40:14.203Z,35.1
2018-07-25T13:41:22.890Z,35.22
2018-07-25T13:42:31.574Z,35
2018-07-25T13:43:40.258Z,35
2018-07-25T13:44:48.942Z,34.91
2018-07-25T13:45:58.112Z,34.76
2018-07-25T13:47:07.104Z,34.82
2018-07-25T13:48:15.791Z,34.82
2018-07-25T13:49:24.470Z,34.83
2018-07-25T13:50:33.158Z,34.93
2018-07-25T13:51:41.835Z,35.05
2018-07-25T13:52:50.520Z,34.97
2018-07-25T13:53:59.201Z,34.96
2018-07-25T13:55:07.886Z,34.97
2018-07-25T13:56:16.567Z,34.91
2018-07-25T13:57:25.250Z,34.79
2018-07-25T13:58:33.937Z,34.73
2018-07-25T13:59:43.057Z,34.7
2018-07-25T14:00:51.723Z,34.6
2018-07-25T14:02:00.405Z,34.56
2018-07-25T14:03:09.092Z,34.58
2018-07-25T14:04:17.773Z,34.44
2018-07-25T14:05:26.760Z,34.51
2018-07-25T14:06:35.443Z,34.38
2018-07-25T14:07:44.125Z,34.48
2018-07-25T14:08:52.807Z,34.48
2018-07-25T14:10:01.491Z,34.73
2018-07-25T14:11:10.172Z,34.76
2018-07-25T14:12:19.129Z,34.85
2018-07-25T14:13:27.816Z,34.83
2018-07-25T14:14:36.497Z,34.93
2018-07-25T14:15:45.179Z,34.98
2018-07-25T14:16:53.864Z,35.03
2018-07-25T14:18:02.976Z,35.01
2018-07-25T14:19:11.939Z,35.01
2018-07-25T14:20:20.623Z,35.04
2018-07-25T14:21:29.310Z,35.04
2018-07-25T14:22:37.993Z,35.07
2018-07-25T14:23:46.907Z,35
2018-07-25T14:24:55.657Z,34.91
2018-07-25T14:26:04.340Z,34.89
2018-07-25T14:27:13.077Z,34.89
2018-07-25T14:28:21.707Z,34.81
2018-07-25T14:29:30.478Z,34.82
2018-07-25T14:30:39.124Z,34.7
2018-07-25T14:31:47.768Z,34.71
2018-07-25T14:32:56.451Z,34.66
2018-07-25T14:34:05.151Z,34.6
2018-07-25T14:35:13.822Z,34.51
2018-07-25T14:36:23.498Z,34.51
2018-07-25T14:37:33.219Z,34.51
2018-07-25T14:38:41.902Z,34.59
2018-07-25T14:39:50.715Z,34.69
2018-07-25T14:40:59.856Z,34.81
2018-07-25T14:42:08.539Z,34.85
2018-07-25T14:43:17.296Z,34.86
2018-07-25T14:44:25.920Z,34.93
2018-07-25T14:45:35.415Z,34.91
2018-07-25T14:46:44.141Z,34.94
2018-07-25T14:47:52.784Z,34.81
2018-07-25T14:49:01.469Z,34.81